createdAt,value
2022-12-14T00:00:07.009Z,23.68
2022-12-14T00:02:39.108Z,23.68
2022-12-14T00:05:12.165Z,23.67
2022-12-14T00:07:46.069Z,23.66
2022-12-14T00:10:21.144Z,23.66
2022-12-14T00:12:54.082Z,23.67
2022-12-14T00:15:25.276Z,23.65
2022-12-14T00:18:15.677Z,23.66
2022-12-14T00:20:45.347Z,23.64
2022-12-14T00:23:15.774Z,23.63
2022-12-14T00:25:48.881Z,23.63
2022-12-14T00:28:20.328Z,23.63
2022-12-14T00:30:58.020Z,23.61
2022-12-14T00:33:24.945Z,23.62
2022-12-14T00:35:56.104Z,23.61
2022-12-14T00:38:27.676Z,23.61
2022-12-14T00:40:58.159Z,23.60
2022-12-14T00:43:27.982Z,23.60
2022-12-14T00:45:58.013Z,23.60
2022-12-14T00:48:28.781Z,23.59
2022-12-14T00:50:59.931Z,23.59
2022-12-14T00:53:30.027Z,23.59
2022-12-14T00:56:00.075Z,23.58
2022-12-14T00:58:31.634Z,23.57
2022-12-14T01:01:06.650Z,23.57
2022-12-14T01:03:36.995Z,23.56
2022-12-14T01:06:08.191Z,23.56
2022-12-14T01:08:38.315Z,23.55
2022-12-14T01:11:10.112Z,23.54
2022-12-14T01:13:40.354Z,23.53
2022-12-14T01:16:19.881Z,23.52
2022-12-14T01:18:45.826Z,23.54
2022-12-14T01:21:24.406Z,23.51
2022-12-14T01:23:56.845Z,23.51
2022-12-14T01:26:27.087Z,23.51
2022-12-14T01:29:02.812Z,23.50
2022-12-14T01:31:35.072Z,23.50
2022-12-14T01:34:05.765Z,23.49
2022-12-14T01:36:36.202Z,23.49
2022-12-14T01:39:10.448Z,23.48
2022-12-14T01:41:47.961Z,23.47
2022-12-14T01:44:20.732Z,23.47
2022-12-14T01:47:12.707Z,23.46
2022-12-14T01:49:48.569Z,23.46
2022-12-14T01:52:37.840Z,23.44
2022-12-14T01:55:13.165Z,23.44
2022-12-14T01:58:01.005Z,23.42
2022-12-14T02:00:31.079Z,23.42
2022-12-14T02:03:06.938Z,23.42
2022-12-14T02:05:42.961Z,23.41
2022-12-14T02:08:13.110Z,23.40
2022-12-14T02:10:43.112Z,23.39
2022-12-14T02:13:17.578Z,23.38
2022-12-14T02:15:48.740Z,23.37
2022-12-14T02:18:22.765Z,23.37
2022-12-14T02:21:24.128Z,23.35
2022-12-14T02:24:13.860Z,23.34
2022-12-14T02:26:49.845Z,23.34
2022-12-14T02:29:54.184Z,23.32
2022-12-14T02:32:32.461Z,23.32
2022-12-14T02:35:12.433Z,23.31
2022-12-14T02:37:49.061Z,23.31
2022-12-14T02:40:30.994Z,23.30
2022-12-14T02:43:12.757Z,23.28
2022-12-14T02:45:46.243Z,23.28
2022-12-14T02:48:20.426Z,23.27
2022-12-14T02:50:53.421Z,23.27
2022-12-14T02:53:34.828Z,23.25
2022-12-14T02:56:07.141Z,23.25
2022-12-14T02:58:43.850Z,23.23
2022-12-14T03:01:17.081Z,23.22
2022-12-14T03:03:47.250Z,23.21
2022-12-14T03:06:29.833Z,23.21
2022-12-14T03:09:12.675Z,23.22
2022-12-14T03:11:57.593Z,23.24
2022-12-14T03:14:30.295Z,23.26
2022-12-14T03:17:04.073Z,23.28
2022-12-14T03:19:44.897Z,23.31
2022-12-14T03:22:19.288Z,23.32
2022-12-14T03:24:52.578Z,23.36
2022-12-14T03:27:31.705Z,23.38
2022-12-14T03:30:23.768Z,23.41
2022-12-14T03:32:56.302Z,23.45
2022-12-14T03:35:31.875Z,23.53
2022-12-14T03:50:57.547Z,23.82
2022-12-14T03:53:39.926Z,23.85
2022-12-14T03:56:15.609Z,23.86
2022-12-14T03:59:07.748Z,23.84
2022-12-14T04:02:07.977Z,23.82
2022-12-14T04:04:47.241Z,23.80
2022-12-14T04:07:26.165Z,23.79
2022-12-14T04:10:04.987Z,23.76
2022-12-14T04:12:55.882Z,23.72
2022-12-14T04:15:49.115Z,23.72
2022-12-14T04:18:40.246Z,23.70
2022-12-14T04:21:21.744Z,23.70
2022-12-14T04:24:11.601Z,23.68
2022-12-14T04:26:44.599Z,23.67
2022-12-14T04:29:33.839Z,23.66
2022-12-14T04:32:17.888Z,23.67
2022-12-14T04:34:48.900Z,23.66
2022-12-14T04:37:20.072Z,23.65
2022-12-14T04:39:55.315Z,23.65
2022-12-14T04:42:28.491Z,23.65
2022-12-14T04:45:01.447Z,23.63
2022-12-14T04:47:39.774Z,23.63
2022-12-14T04:50:15.595Z,23.63
2022-12-14T04:52:54.323Z,23.62
2022-12-14T04:55:36.936Z,23.61
2022-12-14T04:58:20.023Z,23.59
2022-12-14T05:01:12.606Z,23.59
2022-12-14T05:03:57.444Z,23.58
2022-12-14T05:06:31.936Z,23.57
2022-12-14T05:09:15.320Z,23.53
2022-12-14T05:11:55.685Z,23.54
2022-12-14T05:14:40.876Z,23.55
2022-12-14T05:17:11.105Z,23.53
2022-12-14T05:19:49.175Z,23.52
2022-12-14T05:22:19.458Z,23.51
2022-12-14T05:24:54.204Z,23.49
2022-12-14T05:27:24.993Z,23.48
2022-12-14T05:29:56.338Z,23.44
2022-12-14T05:32:32.549Z,23.45
2022-12-14T05:35:03.547Z,23.46
2022-12-14T05:37:33.899Z,23.43
2022-12-14T05:40:04.206Z,23.42
2022-12-14T05:42:37.148Z,23.41
2022-12-14T05:45:06.425Z,23.40
2022-12-14T05:47:38.977Z,23.39
2022-12-14T05:50:10.589Z,23.38
2022-12-14T05:52:40.582Z,23.37
2022-12-14T05:55:13.898Z,23.35
2022-12-14T05:57:44.655Z,23.34
2022-12-14T06:00:15.765Z,23.33
2022-12-14T06:02:46.153Z,23.31
2022-12-14T06:05:16.971Z,23.29
2022-12-14T06:07:48.285Z,23.29
2022-12-14T06:10:19.471Z,23.29
2022-12-14T06:12:50.315Z,23.28
2022-12-14T06:15:20.456Z,23.27
2022-12-14T06:17:52.017Z,23.25
2022-12-14T06:20:24.659Z,23.24
2022-12-14T06:22:59.968Z,23.22
2022-12-14T06:25:30.266Z,23.18
2022-12-14T06:28:04.859Z,23.20
2022-12-14T06:30:35.017Z,23.18
2022-12-14T06:33:06.217Z,23.17
2022-12-14T06:35:38.235Z,23.16
2022-12-14T06:38:09.763Z,23.16
2022-12-14T06:40:40.368Z,23.14
2022-12-14T06:43:10.984Z,23.11
2022-12-14T06:45:40.975Z,23.10
2022-12-14T06:48:11.079Z,23.09
2022-12-14T06:50:43.982Z,23.08
2022-12-14T06:53:18.411Z,23.07
2022-12-14T06:55:50.596Z,23.05
2022-12-14T06:58:20.695Z,23.02
2022-12-14T07:00:51.230Z,23.01
2022-12-14T07:03:21.305Z,22.99
2022-12-14T07:05:52.070Z,22.99
2022-12-14T07:08:23.405Z,22.97
2022-12-14T07:10:58.915Z,22.96
2022-12-14T07:13:27.361Z,22.93
2022-12-14T07:15:59.793Z,22.92
2022-12-14T07:18:30.902Z,22.92
2022-12-14T07:21:02.047Z,22.90
2022-12-14T07:23:34.318Z,22.89
2022-12-14T07:26:15.433Z,22.88
2022-12-14T07:28:46.058Z,22.86
2022-12-14T07:31:20.923Z,22.85
2022-12-14T07:33:51.216Z,22.83
2022-12-14T07:36:21.890Z,22.81
2022-12-14T07:38:52.403Z,22.78
2022-12-14T07:41:23.951Z,22.78
2022-12-14T07:43:55.964Z,22.76
2022-12-14T07:46:28.352Z,22.74
2022-12-14T07:48:58.958Z,22.73
2022-12-14T07:51:30.626Z,22.72
2022-12-14T07:54:01.046Z,22.70
2022-12-14T07:56:32.938Z,22.69
2022-12-14T07:59:04.429Z,22.68
2022-12-14T08:01:36.583Z,22.67
2022-12-14T08:04:11.247Z,22.65
2022-12-14T08:06:41.370Z,22.63
2022-12-14T08:09:11.694Z,22.63
2022-12-14T08:11:41.858Z,22.61
2022-12-14T08:14:14.420Z,22.59
2022-12-14T08:16:44.557Z,22.59
2022-12-14T08:19:14.643Z,22.57
2022-12-14T08:21:46.274Z,22.55
2022-12-14T08:24:18.377Z,22.54
2022-12-14T08:26:49.733Z,22.52
2022-12-14T08:29:20.254Z,22.52
2022-12-14T08:31:50.759Z,22.49
2022-12-14T08:34:22.606Z,22.48
2022-12-14T08:36:53.253Z,22.46
2022-12-14T08:39:25.959Z,22.44
2022-12-14T08:41:56.711Z,22.43
2022-12-14T08:44:27.167Z,22.42
2022-12-14T08:46:58.847Z,22.35
2022-12-14T08:49:32.430Z,22.38
2022-12-14T08:52:02.203Z,22.38
2022-12-14T08:54:34.705Z,22.37
2022-12-14T08:57:07.248Z,22.34
2022-12-14T09:00:00.929Z,22.32
2022-12-14T09:02:10.514Z,22.31
2022-12-14T09:04:40.769Z,22.29
2022-12-14T09:07:12.611Z,22.29
2022-12-14T09:09:43.214Z,22.27
2022-12-14T09:12:14.460Z,22.25
2022-12-14T09:14:45.916Z,22.24
2022-12-14T09:17:18.800Z,22.22
2022-12-14T09:19:49.471Z,22.21
2022-12-14T09:22:19.559Z,22.20
2022-12-14T09:24:53.037Z,22.19
2022-12-14T09:27:24.994Z,22.17
2022-12-14T09:29:56.614Z,22.16
2022-12-14T09:32:27.044Z,22.12
2022-12-14T09:34:57.375Z,22.11
2022-12-14T09:37:28.694Z,22.09
2022-12-14T09:39:59.087Z,22.06
2022-12-14T09:42:51.255Z,22.05
2022-12-14T09:45:33.418Z,22.03
2022-12-14T09:48:22.786Z,22.02
2022-12-14T09:50:53.394Z,22.02
2022-12-14T09:53:24.552Z,22.01
2022-12-14T09:55:58.950Z,21.98
2022-12-14T09:58:31.183Z,21.98
2022-12-14T10:01:25.321Z,21.95
2022-12-14T10:03:58.469Z,21.95
2022-12-14T10:06:44.379Z,21.93
2022-12-14T10:09:38.021Z,21.90
2022-12-14T10:12:34.401Z,21.87
2022-12-14T10:15:24.994Z,21.86
2022-12-14T10:18:05.719Z,21.83
2022-12-14T10:20:41.497Z,21.79
2022-12-14T10:23:22.422Z,21.77
2022-12-14T10:25:49.319Z,21.75
2022-12-14T10:28:22.742Z,21.75
2022-12-14T10:30:53.060Z,21.74
2022-12-14T10:33:29.180Z,21.70
2022-12-14T10:36:02.596Z,21.68
2022-12-14T10:38:45.689Z,21.64
2022-12-14T10:41:25.817Z,21.65
2022-12-14T12:22:36.374Z,22.64
2022-12-14T12:27:38.665Z,22.79
2022-12-14T12:30:19.049Z,22.87
2022-12-14T12:32:50.698Z,22.94
2022-12-14T12:35:26.910Z,23.02
2022-12-14T12:38:05.899Z,23.11
2022-12-14T12:40:44.481Z,23.16
2022-12-14T12:43:20.562Z,23.21
2022-12-14T12:46:02.105Z,23.25
2022-12-14T12:48:49.013Z,23.30
2022-12-14T12:51:30.829Z,23.35
2022-12-14T12:54:03.442Z,23.40
2022-12-14T12:56:48.476Z,23.43
2022-12-14T12:59:30.273Z,23.48
2022-12-14T13:02:03.520Z,23.52
2022-12-14T13:04:41.261Z,23.59
2022-12-14T13:07:26.312Z,23.63
2022-12-14T13:10:05.770Z,23.68
2022-12-14T13:12:37.196Z,23.72
2022-12-14T13:15:09.368Z,23.76
2022-12-14T13:17:43.568Z,23.80
2022-12-14T13:20:27.647Z,23.83
2022-12-14T13:23:05.706Z,23.86
2022-12-14T13:25:50.941Z,23.90
2022-12-14T13:28:38.825Z,23.92
2022-12-14T13:31:21.699Z,23.99
2022-12-14T13:34:00.569Z,24.06
2022-12-14T13:36:52.300Z,24.12
2022-12-14T13:43:03.390Z,24.18
2022-12-14T13:45:36.327Z,24.23
2022-12-14T13:48:12.077Z,24.24
2022-12-14T13:50:55.975Z,24.27
2022-12-14T13:53:17.415Z,24.30
2022-12-14T13:55:54.225Z,24.31
2022-12-14T13:58:38.164Z,24.35
2022-12-14T14:01:15.283Z,24.38
2022-12-14T14:03:54.775Z,24.41
2022-12-14T14:06:39.765Z,24.42
2022-12-14T14:09:28.463Z,24.45
2022-12-14T14:15:36.826Z,24.50
2022-12-14T14:18:16.296Z,24.55
2022-12-14T14:20:58.884Z,24.58
2022-12-14T14:23:28.958Z,24.59
2022-12-14T14:26:19.567Z,24.63
2022-12-14T14:28:53.067Z,24.63
2022-12-14T14:31:24.243Z,24.67
2022-12-14T14:33:59.362Z,24.68
2022-12-14T14:36:34.389Z,24.70
2022-12-14T14:39:24.428Z,24.73
2022-12-14T14:41:42.234Z,24.76
2022-12-14T14:44:32.495Z,24.79
2022-12-14T14:47:07.538Z,24.81
2022-12-14T14:49:42.434Z,24.84
2022-12-14T14:52:43.536Z,24.86
2022-12-14T14:55:54.713Z,24.88
2022-12-14T14:58:33.152Z,24.91
2022-12-14T15:01:21.659Z,24.94
2022-12-14T15:04:00.804Z,24.96
2022-12-14T15:06:37.040Z,24.98
2022-12-14T15:09:21.323Z,24.96
2022-12-14T15:11:55.946Z,24.92
2022-12-14T15:14:48.805Z,24.89
2022-12-14T15:17:23.511Z,24.86
2022-12-14T15:20:02.026Z,24.83
2022-12-14T15:22:35.710Z,24.81
2022-12-14T15:25:06.575Z,24.78
2022-12-14T15:27:38.838Z,24.75
2022-12-14T15:30:17.773Z,24.75
2022-12-14T15:33:04.671Z,24.73
2022-12-14T15:35:26.533Z,24.71
2022-12-14T15:38:00.436Z,24.70
2022-12-14T15:40:50.266Z,24.68
2022-12-14T15:43:28.562Z,24.66
2022-12-14T15:46:06.435Z,24.64
2022-12-14T15:48:37.266Z,24.62
2022-12-14T15:51:16.894Z,24.62
2022-12-14T15:53:50.428Z,24.60
2022-12-14T15:56:34.882Z,24.58
2022-12-14T15:59:06.996Z,24.57
2022-12-14T16:01:55.079Z,24.56
2022-12-14T16:04:26.672Z,24.54
2022-12-14T16:09:50.359Z,24.57
2022-12-14T16:12:21.793Z,24.46
2022-12-14T16:14:55.390Z,24.45
2022-12-14T16:17:39.024Z,24.46
2022-12-14T16:20:33.098Z,24.46
2022-12-14T16:23:18.229Z,24.45
2022-12-14T16:26:05.804Z,24.41
2022-12-14T16:28:36.764Z,24.39
2022-12-14T16:31:15.458Z,24.37
2022-12-14T16:33:46.483Z,24.34
2022-12-14T16:36:25.187Z,24.32
2022-12-14T16:39:14.342Z,24.28
2022-12-14T16:41:50.571Z,24.27
2022-12-14T16:44:35.454Z,24.25
2022-12-14T16:47:17.343Z,24.22
2022-12-14T16:50:00.501Z,24.20
2022-12-14T16:52:34.408Z,24.18
2022-12-14T16:55:22.087Z,24.16
2022-12-14T16:58:03.274Z,24.14
2022-12-14T17:00:37.224Z,24.11
2022-12-14T17:03:10.581Z,24.11
2022-12-14T17:05:43.832Z,24.13
2022-12-14T17:08:14.010Z,24.13
2022-12-14T17:10:45.720Z,24.15
2022-12-14T17:13:15.877Z,24.18
2022-12-14T17:16:03.950Z,24.19
2022-12-14T17:18:45.995Z,24.21
2022-12-14T17:21:27.787Z,24.23
2022-12-14T17:23:59.901Z,24.24
2022-12-14T17:26:32.705Z,24.27
2022-12-14T17:29:02.728Z,24.28
2022-12-14T17:31:32.916Z,24.29
2022-12-14T17:34:04.371Z,24.32
2022-12-14T17:36:35.623Z,24.34
2022-12-14T17:39:07.234Z,24.38
2022-12-14T17:41:37.437Z,24.40
2022-12-14T17:44:07.714Z,24.41
2022-12-14T17:46:38.156Z,24.46
2022-12-14T17:49:08.939Z,24.46
2022-12-14T17:51:41.693Z,24.50
2022-12-14T17:54:17.749Z,24.52
2022-12-14T17:56:49.758Z,24.54
2022-12-14T17:59:21.346Z,24.57
2022-12-14T18:01:52.133Z,24.61
2022-12-14T18:04:22.728Z,24.64
2022-12-14T18:06:56.092Z,24.65
2022-12-14T18:09:26.961Z,24.69
2022-12-14T18:12:22.287Z,24.69
2022-12-14T18:14:35.072Z,24.72
2022-12-14T18:17:09.774Z,24.70
2022-12-14T18:19:38.591Z,24.67
2022-12-14T18:22:08.965Z,24.65
2022-12-14T18:24:39.104Z,24.62
2022-12-14T18:27:10.949Z,24.61
2022-12-14T18:29:40.814Z,24.60
2022-12-14T18:32:14.909Z,24.59
2022-12-14T18:34:46.208Z,24.57
2022-12-14T18:37:22.855Z,24.57
2022-12-14T18:39:51.176Z,24.54
2022-12-14T18:42:22.806Z,24.53
2022-12-14T18:44:53.409Z,24.51
2022-12-14T18:47:41.100Z,24.50
2022-12-14T18:49:57.787Z,24.49
2022-12-14T18:52:30.294Z,24.48
2022-12-14T18:55:00.898Z,24.47
2022-12-14T18:57:31.052Z,24.46
2022-12-14T19:00:04.824Z,24.46
2022-12-14T19:02:36.033Z,24.44
2022-12-14T19:05:06.268Z,24.43
2022-12-14T19:07:36.483Z,24.41
2022-12-14T19:10:08.007Z,24.40
2022-12-14T19:12:40.163Z,24.38
2022-12-14T19:15:14.600Z,24.38
2022-12-14T19:17:49.738Z,24.36
2022-12-14T19:20:21.272Z,24.37
2022-12-14T19:22:53.106Z,24.34
2022-12-14T19:25:25.330Z,24.33
2022-12-14T19:30:33.701Z,24.32
2022-12-14T19:33:05.458Z,24.31
2022-12-14T19:35:40.589Z,24.29
2022-12-14T19:38:17.569Z,24.28
2022-12-14T19:40:50.966Z,24.28
2022-12-14T19:43:23.696Z,24.26
2022-12-14T19:45:57.608Z,24.24
2022-12-14T19:48:29.883Z,24.24
2022-12-14T19:51:02.480Z,24.22
2022-12-14T19:53:38.302Z,24.23
2022-12-14T19:56:15.155Z,24.22
2022-12-14T19:58:46.800Z,24.20
2022-12-14T20:01:19.138Z,24.19
2022-12-14T20:03:50.816Z,24.18
2022-12-14T20:06:22.075Z,24.18
2022-12-14T20:08:52.887Z,24.16
2022-12-14T20:11:23.138Z,24.14
2022-12-14T20:13:57.395Z,24.13
2022-12-14T20:16:25.128Z,24.12
2022-12-14T20:18:57.127Z,24.12
2022-12-14T20:21:30.096Z,24.10
2022-12-14T20:24:00.615Z,24.07
2022-12-14T20:26:30.657Z,24.07
2022-12-14T20:29:02.422Z,24.07
2022-12-14T20:31:34.755Z,24.05
2022-12-14T20:34:06.298Z,24.03
2022-12-14T20:36:36.794Z,24.02
2022-12-14T20:39:06.797Z,24.02
2022-12-14T20:41:37.902Z,24.01
2022-12-14T20:44:12.083Z,24.00
2022-12-14T20:46:46.413Z,23.99
2022-12-14T20:49:21.137Z,23.98
2022-12-14T20:51:51.431Z,23.98
2022-12-14T20:54:23.044Z,23.84
2022-12-14T20:56:53.004Z,23.96
2022-12-14T20:59:23.872Z,23.95
2022-12-14T21:01:58.431Z,23.93
2022-12-14T21:04:30.420Z,23.93
2022-12-14T21:07:01.478Z,23.91
2022-12-14T21:09:31.968Z,23.88
2022-12-14T21:12:19.530Z,23.88
2022-12-14T21:14:57.637Z,23.87
2022-12-14T21:17:34.493Z,23.86
2022-12-14T21:20:06.184Z,23.83
2022-12-14T21:22:36.665Z,23.82
2022-12-14T21:25:07.664Z,23.80
2022-12-14T21:27:42.379Z,23.80
2022-12-14T21:30:13.818Z,23.84
2022-12-14T21:32:44.584Z,23.86
2022-12-14T21:35:16.080Z,23.91
2022-12-14T21:37:48.941Z,23.93
2022-12-14T21:40:21.005Z,23.96
2022-12-14T21:42:52.329Z,23.98
2022-12-14T21:45:22.935Z,24.02
2022-12-14T21:47:52.943Z,24.05
2022-12-14T21:50:23.068Z,24.08
2022-12-14T21:52:53.459Z,24.11
2022-12-14T21:55:23.306Z,24.15
2022-12-14T21:58:10.785Z,24.19
2022-12-14T22:00:41.685Z,24.21
2022-12-14T22:03:11.687Z,24.26
2022-12-14T22:05:41.727Z,24.30
2022-12-14T22:08:15.671Z,24.34
2022-12-14T22:10:48.402Z,24.38
2022-12-14T22:13:19.727Z,24.41
2022-12-14T22:15:50.101Z,24.45
2022-12-14T22:18:20.274Z,24.50
2022-12-14T22:20:50.494Z,24.52
2022-12-14T22:23:23.869Z,24.57
2022-12-14T22:25:54.151Z,24.60
2022-12-14T22:28:24.785Z,24.65
2022-12-14T22:30:56.093Z,24.68
2022-12-14T22:33:27.135Z,24.71
2022-12-14T22:35:59.350Z,24.74
2022-12-14T22:38:31.399Z,24.77
2022-12-14T22:41:06.204Z,24.78
2022-12-14T22:43:37.577Z,24.77
2022-12-14T22:46:08.161Z,24.77
2022-12-14T22:48:41.658Z,24.75
2022-12-14T22:51:12.996Z,24.74
2022-12-14T22:53:44.259Z,24.75
2022-12-14T22:56:31.121Z,24.74
2022-12-14T22:59:07.571Z,24.73
2022-12-14T23:01:38.359Z,24.71
2022-12-14T23:04:09.519Z,24.71
2022-12-14T23:06:40.442Z,24.69
2022-12-14T23:09:28.359Z,24.69
2022-12-14T23:12:21.606Z,24.68
2022-12-14T23:15:06.986Z,24.66
2022-12-14T23:17:56.851Z,24.64
2022-12-14T23:20:48.703Z,24.60
2022-12-14T23:23:37.426Z,24.60
2022-12-14T23:26:24.940Z,24.59
2022-12-14T23:29:14.948Z,24.57
2022-12-14T23:32:03.262Z,24.57
2022-12-14T23:34:52.925Z,24.54
2022-12-14T23:37:40.585Z,24.53
2022-12-14T23:40:29.516Z,24.51
2022-12-14T23:43:17.833Z,24.50
2022-12-14T23:46:05.081Z,24.49
2022-12-14T23:48:54.561Z,24.48
2022-12-14T23:51:43.524Z,24.47
2022-12-14T23:54:32.075Z,24.45
2022-12-14T23:57:20.430Z,24.44
